Time;durP1;ratioP1;P1;durP2;ratioP2;P2;SDS_P1;SDS_P2;PMS_P1;PMS_P2;Temp;Humidity;BMP_temperature;BMP_pressure;BME280_temperature;BME280_humidity;BME280_pressure;Samples;Min_cycle;Max_cycle;Signal;HPM_P1;HPM_P2
2023/05/10 00:00:57;;;;;;;12.23;11.05;;;13.70;99.90;;;;;;5051733;28;20129;-60
2023/05/10 00:03:22;;;;;;;13.35;12.05;;;13.60;99.90;;;;;;5034309;28;20371;-60
2023/05/10 00:05:48;;;;;;;12.82;11.63;;;13.60;99.90;;;;;;5035879;28;20067;-60
2023/05/10 00:08:13;;;;;;;11.98;10.77;;;13.50;99.90;;;;;;5032261;28;20140;-59
2023/05/10 00:10:40;;;;;;;11.75;10.55;;;13.50;99.90;;;;;;5045530;28;20033;-60
2023/05/10 00:13:06;;;;;;;13.85;12.48;;;13.50;99.90;;;;;;5043911;28;20072;-61
2023/05/10 00:15:32;;;;;;;14.23;12.80;;;13.40;99.90;;;;;;5050966;28;20175;-60
2023/05/10 00:17:58;;;;;;;12.32;11.20;;;13.40;99.90;;;;;;5048639;28;20426;-59
2023/05/10 00:20:23;;;;;;;13.48;12.27;;;13.40;99.90;;;;;;5037000;28;20044;-61
2023/05/10 00:22:49;;;;;;;13.63;12.23;;;13.40;99.90;;;;;;5039291;28;20037;-61
2023/05/10 00:25:14;;;;;;;14.60;11.65;;;13.40;99.90;;;;;;5048822;28;20037;-60
2023/05/10 00:27:40;;;;;;;13.20;12.00;;;13.30;99.90;;;;;;5048852;28;20040;-61
2023/05/10 00:30:06;;;;;;;13.20;11.90;;;13.30;99.90;;;;;;5050342;28;20047;-60
2023/05/10 00:32:32;;;;;;;;;;;13.30;99.90;;;;;;5033596;28;20089;-60
2023/05/10 00:34:57;;;;;;;12.32;11.13;;;13.30;99.90;;;;;;5050465;28;20004;-60
2023/05/10 00:37:23;;;;;;;14.65;12.68;;;13.20;99.90;;;;;;5050408;28;20041;-61
2023/05/10 00:39:49;;;;;;;14.68;12.63;;;13.20;99.90;;;;;;5049260;28;20041;-60
2023/05/10 00:42:14;;;;;;;14.30;12.82;;;13.20;99.90;;;;;;5050861;28;20391;-60
2023/05/10 00:44:40;;;;;;;13.88;12.48;;;13.20;99.90;;;;;;5049938;28;20071;-60
2023/05/10 00:47:06;;;;;;;14.38;12.98;;;13.20;99.90;;;;;;5050241;28;20047;-61
2023/05/10 00:49:32;;;;;;;15.23;13.70;;;13.20;99.90;;;;;;5050201;28;20044;-59
2023/05/10 00:51:58;;;;;;;16.60;14.82;;;13.20;99.90;;;;;;5050668;28;20060;-60
2023/05/10 00:54:23;;;;;;;15.73;14.00;;;13.20;99.90;;;;;;5049884;28;20116;-61
2023/05/10 00:56:49;;;;;;;18.52;15.88;;;13.20;99.90;;;;;;5048758;28;20036;-60
2023/05/10 00:59:16;;;;;;;15.55;13.85;;;13.20;99.90;;;;;;5048360;28;20497;-60
2023/05/10 01:01:43;;;;;;;14.75;13.23;;;13.20;99.90;;;;;;5047634;28;20564;-60
2023/05/10 01:04:12;;;;;;;20.00;16.55;;;13.20;99.90;;;;;;5051771;28;20128;-60
2023/05/10 01:06:38;;;;;;;18.25;16.25;;;13.20;99.90;;;;;;5047185;28;20041;-60
2023/05/10 01:09:03;;;;;;;18.00;16.10;;;13.20;99.90;;;;;;5032019;28;20044;-61
2023/05/10 01:11:29;;;;;;;17.15;14.40;;;13.20;99.90;;;;;;5030374;28;20044;-61
2023/05/10 01:13:57;;;;;;;19.27;17.20;;;13.20;99.90;;;;;;5029861;28;20048;-59
2023/05/10 01:16:23;;;;;;;18.23;16.15;;;13.10;99.90;;;;;;5012546;28;20511;-60
2023/05/10 01:18:50;;;;;;;21.17;16.30;;;13.20;99.90;;;;;;5037653;28;20106;-58
2023/05/10 01:21:27;;;;;;;19.65;17.60;;;13.10;99.90;;;;;;5050185;28;20076;-58
2023/05/10 01:24:14;;;;;;;19.27;16.52;;;13.10;99.90;;;;;;5049796;28;20041;-58
2023/05/10 01:27:07;;;;;;;19.15;16.25;;;13.10;99.90;;;;;;5049578;28;20029;-59
2023/05/10 01:30:05;;;;;;;18.42;16.23;;;13.10;99.90;;;;;;5049165;28;20051;-59
2023/05/10 01:32:41;;;;;;;18.80;15.65;;;13.10;99.90;;;;;;5031503;28;20183;-59
2023/05/10 01:35:16;;;;;;;17.10;15.30;;;13.10;99.90;;;;;;5031453;28;20044;-58
2023/05/10 01:38:07;;;;;;;17.77;15.73;;;13.10;99.90;;;;;;5047837;28;20064;-58
2023/05/10 01:40:40;;;;;;;18.73;16.65;;;13.00;99.90;;;;;;5029498;28;20115;-59
2023/05/10 01:43:15;;;;;;;17.73;15.82;;;13.10;99.90;;;;;;5041860;28;20095;-58
2023/05/10 01:46:10;;;;;;;18.73;16.35;;;13.10;99.90;;;;;;5049922;28;20608;-59
2023/05/10 01:48:46;;;;;;;18.45;16.33;;;13.00;99.90;;;;;;5049077;28;20489;-59
2023/05/10 01:51:16;;;;;;;17.70;15.52;;;13.00;99.90;;;;;;5049963;28;20037;-60
2023/05/10 01:53:44;;;;;;;17.95;16.05;;;13.00;99.90;;;;;;5047893;28;20036;-60
2023/05/10 01:56:11;;;;;;;17.35;15.48;;;13.00;99.90;;;;;;5048164;28;20044;-60
2023/05/10 01:58:40;;;;;;;17.52;14.43;;;13.00;99.90;;;;;;5049192;28;20041;-60
2023/05/10 02:01:06;;;;;;;19.42;17.20;;;13.00;99.90;;;;;;5049739;28;20440;-58
2023/05/10 02:03:35;;;;;;;17.80;15.93;;;13.00;99.90;;;;;;5049365;28;20041;-60
2023/05/10 02:06:02;;;;;;;20.77;16.52;;;13.00;99.90;;;;;;5047415;28;20509;-60
2023/05/10 02:08:28;;;;;;;16.98;14.45;;;13.00;99.90;;;;;;5047600;28;20041;-60
2023/05/10 02:10:56;;;;;;;22.65;16.30;;;13.00;99.90;;;;;;5049485;28;20044;-60
2023/05/10 02:13:23;;;;;;;18.52;15.70;;;13.00;99.90;;;;;;5049211;28;20421;-60
2023/05/10 02:15:50;;;;;;;18.98;16.05;;;12.90;99.90;;;;;;5049786;28;20458;-60
2023/05/10 02:18:17;;;;;;;19.40;14.93;;;12.90;99.90;;;;;;5052385;28;20501;-60
2023/05/10 02:20:45;;;;;;;16.70;14.63;;;12.90;99.90;;;;;;5053281;28;20037;-60
2023/05/10 02:23:12;;;;;;;16.92;14.68;;;12.90;99.90;;;;;;5053094;28;20545;-59
2023/05/10 02:25:39;;;;;;;16.77;14.93;;;12.90;99.90;;;;;;5052780;28;20406;-60
2023/05/10 02:28:06;;;;;;;17.00;15.00;;;12.90;99.90;;;;;;5050233;28;20109;-60
2023/05/10 02:30:34;;;;;;;18.10;14.05;;;12.90;99.90;;;;;;5053088;28;20055;-60
2023/05/10 02:33:01;;;;;;;18.35;14.13;;;12.90;99.90;;;;;;5052560;28;20041;-60
2023/05/10 02:35:28;;;;;;;18.17;13.55;;;12.90;99.90;;;;;;5053472;28;20116;-59
2023/05/10 02:37:55;;;;;;;15.50;13.55;;;12.90;99.90;;;;;;5051983;28;20036;-60
2023/05/10 02:40:23;;;;;;;16.52;14.07;;;12.90;99.90;;;;;;5052837;28;20070;-59
2023/05/10 02:42:52;;;;;;;15.65;13.13;;;12.90;99.90;;;;;;5052457;28;20090;-59
2023/05/10 02:45:21;;;;;;;17.30;13.73;;;12.90;99.90;;;;;;5052266;28;20040;-60
2023/05/10 02:47:47;;;;;;;17.75;13.18;;;12.90;99.90;;;;;;5051786;28;20041;-60
2023/05/10 02:50:13;;;;;;;16.85;14.65;;;12.90;99.90;;;;;;5053274;28;20403;-59
2023/05/10 02:52:44;;;;;;;18.52;14.27;;;12.90;99.90;;;;;;5052690;28;20520;-62
2023/05/10 02:55:13;;;;;;;17.25;14.40;;;12.90;99.90;;;;;;5052997;28;20044;-62
2023/05/10 02:57:48;;;;;;;18.80;15.50;;;12.90;99.90;;;;;;5051916;28;20303;-62
2023/05/10 03:00:14;;;;;;;20.95;16.15;;;12.90;99.90;;;;;;5051353;28;20044;-59
2023/05/10 03:02:40;;;;;;;16.10;14.07;;;12.90;99.90;;;;;;5052105;28;20095;-60
2023/05/10 03:05:06;;;;;;;16.80;14.95;;;12.90;99.90;;;;;;5050838;28;20496;-60
2023/05/10 03:07:32;;;;;;;19.23;16.02;;;12.90;99.90;;;;;;5051486;28;20400;-60
2023/05/10 03:09:58;;;;;;;18.42;14.35;;;12.90;99.90;;;;;;5051100;28;20048;-60
2023/05/10 03:12:56;;;;;;;17.90;14.90;;;12.90;99.90;;;;;;5047601;28;20037;-60
2023/05/10 03:15:37;;;;;;;15.55;13.90;;;12.90;99.90;;;;;;5033576;28;20037;-60
2023/05/10 03:18:25;;;;;;;16.42;13.70;;;12.90;99.90;;;;;;5047282;28;20033;-60
2023/05/10 03:20:59;;;;;;;16.30;14.20;;;12.90;99.90;;;;;;5051208;28;20033;-60
2023/05/10 03:23:29;;;;;;;15.05;12.68;;;12.90;99.90;;;;;;5049751;28;20032;-60
2023/05/10 03:25:55;;;;;;;14.50;12.68;;;12.90;99.90;;;;;;5050972;28;20494;-59
2023/05/10 03:28:22;;;;;;;13.18;11.77;;;12.90;99.90;;;;;;5051198;28;20040;-60
2023/05/10 03:30:48;;;;;;;15.35;13.75;;;12.90;99.90;;;;;;5052447;28;20490;-60
2023/05/10 03:33:14;;;;;;;14.10;12.25;;;12.90;99.90;;;;;;5052025;28;20049;-60
2023/05/10 03:35:39;;;;;;;11.98;10.40;;;12.80;99.90;;;;;;5051465;28;20041;-60
2023/05/10 03:38:05;;;;;;;10.75;9.68;;;12.80;99.90;;;;;;5050228;28;20049;-60
2023/05/10 03:40:31;;;;;;;11.55;10.32;;;12.80;99.90;;;;;;5052364;28;20116;-61
2023/05/10 03:42:57;;;;;;;;;;;12.80;99.90;;;;;;5035784;28;20410;-59
2023/05/10 03:45:23;;;;;;;11.05;9.93;;;12.80;99.90;;;;;;5037690;28;19917;-60
2023/05/10 03:47:49;;;;;;;13.35;10.07;;;12.80;99.90;;;;;;5046683;28;20448;-60
2023/05/10 03:50:14;;;;;;;13.27;10.32;;;12.80;99.90;;;;;;5051353;28;20044;-60
2023/05/10 03:52:40;;;;;;;11.68;10.38;;;12.80;99.90;;;;;;5050296;28;20052;-59
2023/05/10 03:55:07;;;;;;;14.98;11.10;;;12.80;99.90;;;;;;5051598;28;20048;-59
2023/05/10 03:57:33;;;;;;;14.60;10.75;;;12.80;99.90;;;;;;5049006;28;20489;-60
2023/05/10 03:59:59;;;;;;;13.02;9.75;;;12.80;99.90;;;;;;5051856;28;20044;-59
2023/05/10 04:02:25;;;;;;;11.13;9.68;;;12.80;99.90;;;;;;5051516;28;20043;-59
2023/05/10 04:04:50;;;;;;;12.15;9.60;;;12.80;99.90;;;;;;5050788;28;20088;-60
2023/05/10 04:07:16;;;;;;;11.63;9.68;;;12.80;99.90;;;;;;5050953;28;20390;-59
2023/05/10 04:09:42;;;;;;;10.18;9.02;;;12.70;99.90;;;;;;5051146;28;20048;-60
2023/05/10 04:12:07;;;;;;;10.13;8.73;;;12.70;99.90;;;;;;5051093;28;20037;-60
2023/05/10 04:14:33;;;;;;;13.60;9.15;;;12.70;99.90;;;;;;5051144;28;20037;-62
2023/05/10 04:16:58;;;;;;;12.13;9.75;;;12.70;99.90;;;;;;5050777;28;20107;-61
2023/05/10 04:19:28;;;;;;;9.32;8.43;;;12.70;99.90;;;;;;5050235;28;20444;-60
2023/05/10 04:21:54;;;;;;;11.07;8.68;;;12.60;99.90;;;;;;5051430;28;20076;-60
2023/05/10 04:24:20;;;;;;;11.00;9.27;;;12.60;99.90;;;;;;5049583;28;20072;-60
2023/05/10 04:26:45;;;;;;;11.95;7.93;;;12.60;99.90;;;;;;5049809;28;20029;-60
2023/05/10 04:29:11;;;;;;;11.20;9.20;;;12.60;99.90;;;;;;5048950;28;20375;-60
2023/05/10 04:31:36;;;;;;;11.52;9.07;;;12.70;99.90;;;;;;5051126;28;20048;-60
2023/05/10 04:34:02;;;;;;;12.65;9.98;;;12.70;99.90;;;;;;5050579;28;20098;-60
2023/05/10 04:36:28;;;;;;;12.88;10.43;;;12.70;99.90;;;;;;5050277;28;20040;-60
2023/05/10 04:38:54;;;;;;;11.55;9.63;;;12.70;99.90;;;;;;5049237;28;20060;-60
2023/05/10 04:41:20;;;;;;;10.57;9.07;;;12.70;99.90;;;;;;5051096;28;20460;-60
2023/05/10 04:43:46;;;;;;;11.38;9.00;;;12.70;99.90;;;;;;5050268;28;20036;-60
2023/05/10 04:46:12;;;;;;;11.73;9.60;;;12.70;99.90;;;;;;5051076;28;20072;-60
2023/05/10 04:48:37;;;;;;;10.55;9.30;;;12.70;99.90;;;;;;5031408;28;20962;-60
2023/05/10 04:51:03;;;;;;;11.63;9.10;;;12.70;99.90;;;;;;5031095;28;20069;-61
2023/05/10 04:53:29;;;;;;;10.10;7.88;;;12.70;99.90;;;;;;5030657;28;20383;-60
2023/05/10 04:55:55;;;;;;;10.68;8.73;;;12.70;99.90;;;;;;5030599;28;20045;-60
2023/05/10 04:58:20;;;;;;;12.63;8.77;;;12.70;99.90;;;;;;5030244;28;20037;-60
2023/05/10 05:00:46;;;;;;;10.57;8.77;;;12.70;99.90;;;;;;5036180;28;20441;-59
2023/05/10 05:03:12;;;;;;;9.63;8.63;;;12.70;99.90;;;;;;5049800;28;20080;-60
2023/05/10 05:05:37;;;;;;;8.45;7.55;;;12.70;99.90;;;;;;5065574;28;20119;-60
2023/05/10 05:08:03;;;;;;;9.60;7.47;;;12.70;99.90;;;;;;5048177;28;20103;-60
2023/05/10 05:10:29;;;;;;;9.40;7.43;;;12.70;99.90;;;;;;5049283;28;20033;-60
2023/05/10 05:12:55;;;;;;;11.35;7.35;;;12.70;99.90;;;;;;5050056;28;20068;-60
2023/05/10 05:15:21;;;;;;;9.13;7.00;;;12.70;99.90;;;;;;5049095;28;20072;-60
2023/05/10 05:17:47;;;;;;;11.20;7.55;;;12.70;99.90;;;;;;5049111;28;20062;-60
2023/05/10 05:20:12;;;;;;;8.40;7.60;;;12.70;99.90;;;;;;5050652;28;20501;-60
2023/05/10 05:22:38;;;;;;;9.60;6.18;;;12.70;99.90;;;;;;5050853;28;20041;-60
2023/05/10 05:25:05;;;;;;;8.00;6.30;;;12.70;99.90;;;;;;5049780;28;20047;-60
2023/05/10 05:27:31;;;;;;;7.00;5.72;;;12.80;99.90;;;;;;5049329;28;20041;-60
2023/05/10 05:29:57;;;;;;;11.68;7.13;;;12.80;99.90;;;;;;5050136;28;20128;-58
2023/05/10 05:32:23;;;;;;;8.90;5.90;;;12.80;99.90;;;;;;5048258;28;20119;-61
2023/05/10 05:34:50;;;;;;;11.00;6.55;;;12.80;99.90;;;;;;5047156;28;20047;-61
2023/05/10 05:37:16;;;;;;;;;;;12.90;99.90;;;;;;5049129;28;20043;-61
2023/05/10 05:39:42;;;;;;;10.60;7.60;;;12.90;99.90;;;;;;5049380;28;19920;-61
2023/05/10 05:42:08;;;;;;;;;;;12.90;99.90;;;;;;5040145;28;20494;-59
2023/05/10 05:44:34;;;;;;;8.32;7.00;;;12.90;99.90;;;;;;5029560;28;19917;-58
2023/05/10 05:47:00;;;;;;;7.80;5.78;;;12.90;99.90;;;;;;5029276;28;20528;-60
2023/05/10 05:49:25;;;;;;;7.65;6.10;;;12.90;99.90;;;;;;5027751;28;20542;-59
2023/05/10 05:51:51;;;;;;;11.13;6.30;;;13.00;99.90;;;;;;5029852;28;20061;-59
2023/05/10 05:54:16;;;;;;;9.95;6.25;;;13.00;99.90;;;;;;5039541;28;20275;-59
2023/05/10 05:56:44;;;;;;;9.38;7.38;;;13.00;99.90;;;;;;5049451;28;20040;-59
2023/05/10 05:59:10;;;;;;;9.00;6.68;;;13.00;99.90;;;;;;5047562;28;20060;-59
2023/05/10 06:01:35;;;;;;;11.32;6.68;;;13.00;99.90;;;;;;5048060;28;20040;-59
2023/05/10 06:04:01;;;;;;;10.00;6.15;;;13.00;99.90;;;;;;5049236;28;20378;-60
2023/05/10 06:06:27;;;;;;;7.53;6.22;;;13.10;99.90;;;;;;5048538;28;20045;-60
2023/05/10 06:08:53;;;;;;;10.90;6.07;;;13.10;99.90;;;;;;5048759;28;20033;-59
2023/05/10 06:11:18;;;;;;;11.10;6.90;;;13.10;99.90;;;;;;5049247;28;20037;-60
2023/05/10 06:13:44;;;;;;;8.35;5.93;;;13.00;99.90;;;;;;5048582;28;20056;-58
2023/05/10 06:16:10;;;;;;;10.40;5.97;;;13.10;99.90;;;;;;5045893;28;20036;-59
2023/05/10 06:18:35;;;;;;;9.40;7.15;;;13.10;99.90;;;;;;5035841;28;20087;-59
2023/05/10 06:21:01;;;;;;;11.35;6.30;;;13.10;99.90;;;;;;5049581;28;20041;-59
2023/05/10 06:23:27;;;;;;;9.85;6.40;;;13.10;99.90;;;;;;5053478;28;20048;-58
2023/05/10 06:25:52;;;;;;;7.72;6.93;;;13.10;99.90;;;;;;5054289;28;20088;-58
2023/05/10 06:28:18;;;;;;;14.05;6.90;;;13.10;99.90;;;;;;5049462;28;20383;-57
2023/05/10 06:30:44;;;;;;;10.80;7.07;;;13.20;99.90;;;;;;5044937;28;20029;-59
2023/05/10 06:33:10;;;;;;;9.98;6.47;;;13.20;99.90;;;;;;5047960;28;20041;-58
2023/05/10 06:35:36;;;;;;;10.57;7.13;;;13.30;99.90;;;;;;5047942;28;20500;-63
2023/05/10 06:38:02;;;;;;;10.23;7.13;;;13.30;99.90;;;;;;5045296;28;20048;-58
2023/05/10 06:40:27;;;;;;;10.43;7.72;;;13.30;99.90;;;;;;5049047;28;20037;-55
2023/05/10 06:42:53;;;;;;;8.85;6.97;;;13.50;99.90;;;;;;5049260;28;20036;-60
2023/05/10 06:45:19;;;;;;;11.02;6.93;;;13.50;99.90;;;;;;5029831;28;20080;-58
2023/05/10 06:47:45;;;;;;;12.73;7.10;;;13.50;99.90;;;;;;5028533;28;20048;-57
2023/05/10 06:50:11;;;;;;;16.13;8.32;;;13.50;99.90;;;;;;5027818;28;20057;-58
2023/05/10 06:52:37;;;;;;;11.75;8.60;;;13.50;99.90;;;;;;5029343;28;20039;-58
2023/05/10 06:55:04;;;;;;;12.45;8.27;;;13.60;99.90;;;;;;5028818;28;20037;-59
2023/05/10 06:57:30;;;;;;;11.52;7.60;;;13.70;99.90;;;;;;5046585;28;20037;-58
2023/05/10 06:59:56;;;;;;;11.45;7.72;;;13.80;99.90;;;;;;5049087;28;20033;-58
2023/05/10 07:02:22;;;;;;;8.50;7.35;;;13.80;99.90;;;;;;5050348;28;20041;-58
2023/05/10 07:04:48;;;;;;;9.32;6.75;;;13.90;99.90;;;;;;5052725;28;20040;-58
2023/05/10 07:07:14;;;;;;;10.32;6.30;;;13.90;99.90;;;;;;5052663;28;20120;-59
2023/05/10 07:09:39;;;;;;;12.20;6.78;;;14.00;99.90;;;;;;5052402;28;20081;-59
2023/05/10 07:12:05;;;;;;;7.32;6.13;;;14.10;99.90;;;;;;5052341;28;20130;-59
2023/05/10 07:14:31;;;;;;;7.95;5.97;;;14.10;99.90;;;;;;5052303;28;20556;-59
2023/05/10 07:16:56;;;;;;;8.63;5.43;;;14.10;99.90;;;;;;5052102;28;20037;-60
2023/05/10 07:19:22;;;;;;;9.77;6.15;;;14.10;99.90;;;;;;5050111;28;20060;-60
2023/05/10 07:21:48;;;;;;;6.85;5.38;;;14.20;99.90;;;;;;5046026;28;20035;-59
2023/05/10 07:24:13;;;;;;;8.23;5.68;;;14.10;99.90;;;;;;5042740;28;20056;-59
2023/05/10 07:26:39;;;;;;;6.50;5.43;;;14.20;99.90;;;;;;5039698;28;20037;-59
2023/05/10 07:29:05;;;;;;;7.53;4.85;;;14.20;99.90;;;;;;5039079;28;20041;-59
2023/05/10 07:31:30;;;;;;;7.90;5.47;;;14.10;99.90;;;;;;5046359;28;20494;-59
2023/05/10 07:33:56;;;;;;;9.32;5.80;;;14.10;99.90;;;;;;5050034;28;20088;-60
2023/05/10 07:36:22;;;;;;;8.63;5.07;;;14.10;99.90;;;;;;5043025;28;20040;-57
2023/05/10 07:38:49;;;;;;;9.93;5.68;;;14.10;99.90;;;;;;5049226;28;20048;-60
2023/05/10 07:41:14;;;;;;;7.93;5.40;;;14.10;99.90;;;;;;5050270;28;20041;-60
2023/05/10 07:43:40;;;;;;;6.53;4.45;;;14.00;99.90;;;;;;5049232;28;20505;-58
2023/05/10 07:46:06;;;;;;;7.00;5.53;;;14.00;99.90;;;;;;5050373;28;20075;-60
2023/05/10 07:48:32;;;;;;;11.68;6.07;;;14.00;99.90;;;;;;5041592;28;20060;-59
2023/05/10 07:50:57;;;;;;;9.32;6.03;;;14.00;99.90;;;;;;5045900;28;20037;-59
2023/05/10 07:53:23;;;;;;;12.10;5.90;;;14.10;99.90;;;;;;5050374;28;20032;-58
2023/05/10 07:55:57;;;;;;;8.85;6.20;;;14.10;99.90;;;;;;5043454;28;20085;-60
2023/05/10 07:58:23;;;;;;;8.80;7.05;;;14.10;99.90;;;;;;5047524;28;20048;-59
2023/05/10 08:00:49;;;;;;;11.60;7.03;;;14.20;99.90;;;;;;5048376;28;20516;-59
2023/05/10 08:03:15;;;;;;;10.05;5.78;;;14.20;99.90;;;;;;5059763;28;20044;-58
2023/05/10 08:05:41;;;;;;;9.18;6.20;;;14.30;99.90;;;;;;5033389;28;20040;-59
2023/05/10 08:08:06;;;;;;;8.93;6.40;;;14.30;99.90;;;;;;5050290;28;20041;-60
2023/05/10 08:10:32;;;;;;;7.00;6.07;;;14.30;99.90;;;;;;5050736;28;20420;-60
2023/05/10 08:12:58;;;;;;;7.10;5.25;;;14.30;99.90;;;;;;5049873;28;20076;-58
2023/05/10 08:15:24;;;;;;;8.65;5.32;;;14.40;99.90;;;;;;5050732;28;20486;-59
2023/05/10 08:17:51;;;;;;;6.25;4.95;;;14.30;99.90;;;;;;5049286;28;20489;-60
2023/05/10 08:20:18;;;;;;;7.43;4.40;;;14.40;99.90;;;;;;5031313;28;20694;-59
2023/05/10 08:22:45;;;;;;;5.40;4.28;;;14.40;99.90;;;;;;5031459;28;20041;-59
2023/05/10 08:25:11;;;;;;;7.40;6.35;;;14.40;99.90;;;;;;5049839;28;20146;-59
2023/05/10 08:27:36;;;;;;;8.90;5.53;;;14.40;99.90;;;;;;5049945;28;20381;-61
2023/05/10 08:30:02;;;;;;;11.32;6.38;;;14.50;99.90;;;;;;5050694;28;20103;-58
2023/05/10 08:32:28;;;;;;;7.60;5.60;;;14.50;99.90;;;;;;5050171;28;20036;-59
2023/05/10 08:34:53;;;;;;;6.85;4.38;;;14.60;99.90;;;;;;5049605;28;20045;-59
2023/05/10 08:37:19;;;;;;;6.10;4.50;;;14.70;99.90;;;;;;5049019;28;20068;-59
2023/05/10 08:39:47;;;;;;;5.07;3.38;;;14.70;99.90;;;;;;5049952;28;20128;-59
2023/05/10 08:42:20;;;;;;;5.30;3.92;;;14.70;99.90;;;;;;5049481;28;20134;-60
2023/05/10 08:44:48;;;;;;;5.25;3.65;;;14.80;99.90;;;;;;5050402;28;20547;-60
2023/05/10 08:47:17;;;;;;;4.57;3.10;;;14.80;99.90;;;;;;5049463;28;20497;-60
2023/05/10 08:49:46;;;;;;;4.85;3.03;;;14.90;99.90;;;;;;5048695;28;20057;-60
2023/05/10 08:52:15;;;;;;;4.10;2.35;;;14.90;99.90;;;;;;5050185;28;20045;-60
2023/05/10 08:54:41;;;;;;;4.38;3.78;;;14.90;99.90;;;;;;5050401;28;20593;-59
2023/05/10 08:57:07;;;;;;;6.28;4.45;;;14.90;99.90;;;;;;5050302;28;20514;-60
2023/05/10 08:59:33;;;;;;;5.82;3.20;;;14.90;99.90;;;;;;5050447;28;20460;-59
2023/05/10 09:01:59;;;;;;;5.68;4.43;;;15.00;99.90;;;;;;5052272;28;20258;-58
2023/05/10 09:04:25;;;;;;;3.80;2.95;;;15.00;99.90;;;;;;5055236;28;20041;-60
2023/05/10 09:06:51;;;;;;;4.30;2.92;;;15.00;99.90;;;;;;5048388;28;20047;-58
2023/05/10 09:09:18;;;;;;;2.78;2.17;;;15.10;99.90;;;;;;5050191;28;20700;-59
2023/05/10 09:11:44;;;;;;;4.25;1.95;;;15.10;99.90;;;;;;5049717;28;20037;-59
2023/05/10 09:14:12;;;;;;;1.58;1.25;;;15.20;99.90;;;;;;5048142;28;20117;-58
2023/05/10 09:16:39;;;;;;;1.05;0.77;;;15.20;99.90;;;;;;5045536;28;20041;-57
2023/05/10 09:19:06;;;;;;;2.28;1.27;;;15.20;99.90;;;;;;5040218;28;20049;-58
2023/05/10 09:21:33;;;;;;;4.20;1.83;;;15.20;99.90;;;;;;5035405;28;20128;-58
2023/05/10 09:24:03;;;;;;;2.08;1.45;;;15.20;99.90;;;;;;5049315;28;20041;-56
2023/05/10 09:26:29;;;;;;;2.08;1.00;;;15.20;99.90;;;;;;5047426;28;20080;-56
2023/05/10 09:28:57;;;;;;;1.20;1.10;;;15.20;99.90;;;;;;5049175;28;20076;-57
2023/05/10 09:31:24;;;;;;;2.17;1.55;;;15.20;99.90;;;;;;5049801;28;20127;-57
2023/05/10 09:33:51;;;;;;;1.42;1.23;;;15.20;99.90;;;;;;5048928;28;20485;-57
2023/05/10 09:36:17;;;;;;;2.50;1.17;;;15.20;99.90;;;;;;5031580;28;20454;-58
2023/05/10 09:38:51;;;;;;;0.93;0.80;;;15.20;99.90;;;;;;5047652;28;20036;-58
2023/05/10 09:41:21;;;;;;;3.17;1.00;;;15.30;99.90;;;;;;5047937;28;20037;-57
2023/05/10 09:43:47;;;;;;;1.80;1.40;;;15.30;99.90;;;;;;5036193;28;20033;-56
2023/05/10 09:46:14;;;;;;;4.22;1.80;;;15.40;99.90;;;;;;5029444;28;20038;-58
2023/05/10 09:48:49;;;;;;;3.33;1.77;;;15.50;99.90;;;;;;5046362;28;20033;-59
2023/05/10 09:51:21;;;;;;;2.45;0.90;;;15.50;99.90;;;;;;5058947;28;20028;-58
2023/05/10 09:53:47;;;;;;;1.48;1.10;;;15.60;99.90;;;;;;5058165;28;20090;-57
2023/05/10 09:56:14;;;;;;;1.20;1.10;;;15.50;99.90;;;;;;5055109;28;20040;-58
2023/05/10 09:58:42;;;;;;;1.88;0.70;;;15.50;99.90;;;;;;5056175;28;20259;-59
2023/05/10 10:01:14;;;;;;;1.42;0.65;;;15.50;99.90;;;;;;5050781;28;20118;-58
2023/05/10 10:03:43;;;;;;;1.48;1.00;;;15.50;99.90;;;;;;5055478;28;20559;-60
2023/05/10 10:06:09;;;;;;;6.68;1.67;;;15.50;99.90;;;;;;5053530;28;20046;-58
2023/05/10 10:08:34;;;;;;;1.63;1.35;;;15.40;99.90;;;;;;5051810;28;20416;-58
2023/05/10 10:11:01;;;;;;;2.33;1.90;;;15.40;99.90;;;;;;5050998;28;20395;-59
2023/05/10 10:13:26;;;;;;;;;;;15.40;99.90;;;;;;5042474;28;20048;-59
2023/05/10 10:15:54;;;;;;;2.08;1.80;;;15.40;99.90;;;;;;5047504;28;19932;-58
2023/05/10 10:18:23;;;;;;;3.63;1.40;;;15.40;99.90;;;;;;5056529;28;20029;-59
2023/05/10 10:20:49;;;;;;;3.75;2.58;;;15.40;99.90;;;;;;5051364;28;20037;-58
2023/05/10 10:23:15;;;;;;;3.30;2.88;;;15.30;99.90;;;;;;5052549;28;20044;-59
2023/05/10 10:25:41;;;;;;;2.92;2.05;;;15.40;99.90;;;;;;5057252;28;20395;-59
2023/05/10 10:28:35;;;;;;;2.78;2.50;;;15.30;99.90;;;;;;5055937;28;20087;-59
2023/05/10 10:31:17;;;;;;;3.38;2.38;;;15.40;99.90;;;;;;5054922;28;20040;-57
2023/05/10 10:34:06;;;;;;;4.05;2.40;;;15.40;99.90;;;;;;5051569;28;20037;-59
2023/05/10 10:36:53;;;;;;;5.38;2.63;;;15.40;99.90;;;;;;5046370;28;20485;-59
2023/05/10 10:39:21;;;;;;;2.92;2.65;;;15.40;99.90;;;;;;5059527;28;20045;-59
2023/05/10 10:41:55;;;;;;;4.07;2.40;;;15.50;99.90;;;;;;5063072;28;20028;-59
2023/05/10 10:44:36;;;;;;;3.33;3.03;;;15.50;99.90;;;;;;5061027;28;20390;-59
2023/05/10 10:47:23;;;;;;;4.47;2.63;;;15.60;99.90;;;;;;5056125;28;20044;-59
2023/05/10 10:49:51;;;;;;;4.35;2.33;;;15.70;99.90;;;;;;5056593;28;20033;-59
2023/05/10 10:52:26;;;;;;;3.70;2.80;;;15.80;99.90;;;;;;5054941;28;20107;-59
2023/05/10 10:55:09;;;;;;;3.65;2.47;;;15.80;99.90;;;;;;5056590;28;20407;-59
2023/05/10 10:57:41;;;;;;;3.00;2.70;;;15.80;99.90;;;;;;5037827;28;20041;-59
2023/05/10 11:00:30;;;;;;;5.55;2.60;;;15.80;99.90;;;;;;5059832;28;20170;-59
2023/05/10 11:03:10;;;;;;;4.75;3.45;;;15.80;99.90;;;;;;5057694;28;20033;-59
2023/05/10 11:05:39;;;;;;;5.93;3.85;;;15.80;99.90;;;;;;5051673;28;20425;-59
2023/05/10 11:08:14;;;;;;;5.22;3.67;;;15.80;99.90;;;;;;5059826;28;20397;-58
2023/05/10 11:10:49;;;;;;;4.90;3.97;;;15.80;99.90;;;;;;5054845;28;20386;-59
2023/05/10 11:13:14;;;;;;;5.25;4.75;;;15.80;99.90;;;;;;5057271;28;20041;-59
2023/05/10 11:15:49;;;;;;;4.30;3.90;;;15.80;99.90;;;;;;5059468;28;20035;-60
2023/05/10 11:18:29;;;;;;;4.50;4.10;;;15.70;99.90;;;;;;5057728;28;20124;-59
2023/05/10 11:20:59;;;;;;;4.03;3.63;;;15.70;99.90;;;;;;5059622;28;20517;-61
2023/05/10 11:23:55;;;;;;;5.70;4.82;;;15.70;99.90;;;;;;5059772;28;20405;-59
2023/05/10 11:26:25;;;;;;;8.93;5.82;;;15.60;99.90;;;;;;5033086;28;20064;-58
2023/05/10 11:28:51;;;;;;;12.50;5.32;;;15.60;99.90;;;;;;5060527;28;20054;-59
2023/05/10 11:31:18;;;;;;;17.88;5.07;;;15.60;99.90;;;;;;5054056;28;20569;-59
2023/05/10 11:33:48;;;;;;;8.23;6.10;;;15.60;99.90;;;;;;5059449;28;20311;-60
2023/05/10 11:36:15;;;;;;;7.57;6.10;;;15.60;99.90;;;;;;5058575;28;20127;-59
2023/05/10 11:38:41;;;;;;;9.52;6.97;;;15.60;99.90;;;;;;5058518;28;20047;-60
2023/05/10 11:41:10;;;;;;;10.20;7.07;;;15.60;99.90;;;;;;5053509;28;20032;-58
2023/05/10 11:43:38;;;;;;;9.25;6.90;;;15.60;99.90;;;;;;5048994;28;20441;-58
2023/05/10 11:46:05;;;;;;;7.30;5.80;;;15.70;99.90;;;;;;5050415;28;20120;-62
2023/05/10 11:48:31;;;;;;;8.82;7.00;;;15.60;99.90;;;;;;5035195;28;20041;-60
2023/05/10 11:50:57;;;;;;;12.10;6.53;;;15.60;99.90;;;;;;5048988;28;20037;-59
2023/05/10 11:53:25;;;;;;;9.18;7.05;;;15.60;99.90;;;;;;5050225;28;20076;-59
2023/05/10 11:55:51;;;;;;;11.50;7.10;;;15.60;99.90;;;;;;5051568;28;20040;-58
2023/05/10 11:58:18;;;;;;;8.52;6.63;;;15.60;99.90;;;;;;5051096;28;20033;-59
2023/05/10 12:00:45;;;;;;;8.25;6.25;;;15.70;99.90;;;;;;5051392;28;20091;-59
2023/05/10 12:03:11;;;;;;;7.10;6.20;;;15.70;99.90;;;;;;5050758;28;20111;-60
2023/05/10 12:05:37;;;;;;;6.82;6.03;;;15.70;99.90;;;;;;5051399;28;20138;-59
2023/05/10 12:08:12;;;;;;;;;;;15.70;99.90;;;;;;5049898;28;20037;-60
2023/05/10 12:10:38;;;;;;;8.55;7.20;;;15.70;99.90;;;;;;5051298;28;19927;-60
2023/05/10 12:13:03;;;;;;;7.38;6.28;;;15.70;99.90;;;;;;5050680;28;20036;-60
2023/05/10 12:15:29;;;;;;;7.43;6.22;;;15.80;99.90;;;;;;5051073;28;20040;-59
2023/05/10 12:17:56;;;;;;;10.98;6.03;;;15.80;99.90;;;;;;5050472;28;20489;-59
2023/05/10 12:20:24;;;;;;;8.57;6.50;;;15.90;99.90;;;;;;5050840;28;20119;-60
2023/05/10 12:22:51;;;;;;;7.55;6.78;;;15.90;99.90;;;;;;5050991;28;20102;-59
2023/05/10 12:25:22;;;;;;;9.98;7.15;;;16.00;99.90;;;;;;5050323;28;20040;-60
2023/05/10 12:27:52;;;;;;;9.38;7.65;;;15.90;99.90;;;;;;5050501;28;20041;-60
2023/05/10 12:30:25;;;;;;;8.38;6.65;;;15.90;99.90;;;;;;5050619;28;20109;-59
2023/05/10 12:32:52;;;;;;;7.43;6.63;;;15.90;99.90;;;;;;5051147;28;20073;-59
2023/05/10 12:35:21;;;;;;;9.80;6.93;;;15.90;99.90;;;;;;5049573;28;20037;-60
2023/05/10 12:37:51;;;;;;;10.43;7.80;;;15.80;99.90;;;;;;5049923;28;20132;-60
2023/05/10 12:40:16;;;;;;;11.10;8.15;;;15.80;99.90;;;;;;5050424;28;20032;-59
2023/05/10 12:42:44;;;;;;;10.23;8.45;;;15.80;99.90;;;;;;5051119;28;20060;-59
2023/05/10 12:45:10;;;;;;;8.90;7.85;;;15.70;99.90;;;;;;5050248;28;20049;-60